createdAt,value
2017-09-03T00:00:03.738Z,987.1
2017-09-03T00:01:03.231Z,987.1
2017-09-03T00:02:03.832Z,987.1
2017-09-03T00:03:03.631Z,987.1
2017-09-03T00:04:03.416Z,987.1
2017-09-03T00:05:03.287Z,987
2017-09-03T00:06:02.913Z,987
2017-09-03T00:07:03.512Z,987
2017-09-03T00:08:03.356Z,987
2017-09-03T00:09:03.329Z,986.9
2017-09-03T00:10:02.733Z,987
2017-09-03T00:11:03.539Z,987
2017-09-03T00:12:03.138Z,986.9
2017-09-03T00:13:02.918Z,986.9
2017-09-03T00:14:03.581Z,987
2017-09-03T00:15:03.168Z,987
2017-09-03T00:16:03.578Z,986.9
2017-09-03T00:17:03.354Z,986.9
2017-09-03T00:18:03.255Z,987
2017-09-03T00:19:03.280Z,987
2017-09-03T00:20:03.692Z,986.9
2017-09-03T00:21:03.313Z,986.9
2017-09-03T00:22:03.276Z,987
2017-09-03T00:23:03.863Z,986.9
2017-09-03T00:24:03.459Z,986.9
2017-09-03T00:25:02.870Z,986.9
2017-09-03T00:26:03.646Z,986.9
2017-09-03T00:27:03.291Z,986.9
2017-09-03T00:28:03.709Z,986.9
2017-09-03T00:29:03.493Z,986.8
2017-09-03T00:30:03.151Z,986.8
2017-09-03T00:31:03.561Z,986.8
2017-09-03T00:32:02.785Z,986.8
2017-09-03T00:33:03.439Z,986.8
2017-09-03T00:34:02.460Z,986.8
2017-09-03T00:35:02.858Z,986.8
2017-09-03T00:36:03.684Z,986.8
2017-09-03T00:37:03.474Z,986.8
2017-09-03T00:38:02.877Z,986.8
2017-09-03T00:39:03.318Z,986.8
2017-09-03T00:40:03.054Z,986.8
2017-09-03T00:41:04.025Z,986.8
2017-09-03T00:42:03.810Z,986.8
2017-09-03T00:43:03.615Z,986.8
2017-09-03T00:44:03.210Z,986.8
2017-09-03T00:45:02.983Z,986.8
2017-09-03T00:46:03.377Z,986.8
2017-09-03T00:47:03.180Z,986.8
2017-09-03T00:48:02.784Z,986.9
2017-09-03T00:49:03.417Z,986.9
2017-09-03T00:50:03.265Z,986.8
2017-09-03T00:51:02.873Z,986.8
2017-09-03T00:52:03.672Z,986.8
2017-09-03T00:53:03.305Z,986.8
2017-09-03T00:54:02.928Z,986.8
2017-09-03T00:55:03.385Z,986.9
2017-09-03T00:56:02.971Z,986.8
2017-09-03T00:57:03.766Z,986.8
2017-09-03T00:58:03.188Z,986.9
2017-09-03T00:59:02.984Z,986.9
2017-09-03T01:00:04.074Z,986.9
2017-09-03T01:01:03.700Z,986.9
2017-09-03T01:02:03.873Z,986.9
2017-09-03T01:03:03.920Z,986.9
2017-09-03T01:04:03.742Z,986.9
2017-09-03T01:05:03.354Z,986.8
2017-09-03T01:06:04.179Z,986.8
2017-09-03T01:07:03.612Z,986.9
2017-09-03T01:08:03.587Z,986.8
2017-09-03T01:09:03.370Z,986.8
2017-09-03T01:10:03.598Z,986.8
2017-09-03T01:11:03.244Z,986.8
2017-09-03T01:12:04.041Z,986.8
2017-09-03T01:13:04.031Z,986.8
2017-09-03T01:14:03.878Z,986.8
2017-09-03T01:15:03.499Z,986.7
2017-09-03T01:16:04.303Z,986.8
2017-09-03T01:17:04.155Z,986.8
2017-09-03T01:18:04.138Z,986.8
2017-09-03T01:19:03.560Z,986.8
2017-09-03T01:20:04.175Z,986.8
2017-09-03T01:21:04.175Z,986.7
2017-09-03T01:22:03.806Z,986.7
2017-09-03T01:23:03.759Z,986.7
2017-09-03T01:24:04.546Z,986.7
2017-09-03T01:25:04.025Z,986.8
2017-09-03T01:26:03.259Z,986.7
2017-09-03T01:27:04.253Z,986.7
2017-09-03T01:28:04.232Z,986.7
2017-09-03T01:29:03.647Z,986.7
2017-09-03T01:30:03.461Z,986.7
2017-09-03T01:31:04.498Z,986.7
2017-09-03T01:32:04.551Z,986.6
2017-09-03T01:33:04.166Z,986.7
2017-09-03T01:34:03.628Z,986.6
2017-09-03T01:35:03.657Z,986.6
2017-09-03T01:36:03.255Z,986.7
2017-09-03T01:37:04.042Z,986.6
2017-09-03T01:38:03.656Z,986.6
2017-09-03T01:39:03.446Z,986.6
2017-09-03T01:40:03.872Z,986.6
2017-09-03T01:41:03.281Z,986.6
2017-09-03T01:42:03.696Z,986.6
2017-09-03T01:43:04.287Z,986.6
2017-09-03T01:44:04.076Z,986.7
2017-09-03T01:45:03.404Z,986.6
2017-09-03T01:46:03.625Z,986.6
2017-09-03T01:47:03.420Z,986.6
2017-09-03T01:48:04.018Z,986.6
2017-09-03T01:49:03.614Z,986.6
2017-09-03T01:50:03.598Z,986.7
2017-09-03T01:51:04.197Z,986.6
2017-09-03T01:52:03.788Z,986.6
2017-09-03T01:53:03.014Z,986.6
2017-09-03T01:54:03.414Z,986.6
2017-09-03T01:55:04.223Z,986.6
2017-09-03T01:56:03.639Z,986.6
2017-09-03T01:57:03.445Z,986.6
2017-09-03T01:58:04.249Z,986.6
2017-09-03T01:59:03.660Z,986.5
2017-09-03T02:00:04.364Z,986.6
2017-09-03T02:01:03.825Z,986.6
2017-09-03T02:02:03.605Z,986.6
2017-09-03T02:03:04.016Z,986.6
2017-09-03T02:04:03.830Z,986.6
2017-09-03T02:05:03.434Z,986.5
2017-09-03T02:06:04.035Z,986.5
2017-09-03T02:07:03.641Z,986.6
2017-09-03T02:08:03.245Z,986.6
2017-09-03T02:09:04.257Z,986.6
2017-09-03T02:10:02.911Z,986.7
2017-09-03T02:11:03.558Z,986.6
2017-09-03T02:12:04.210Z,986.7
2017-09-03T02:13:03.811Z,986.6
2017-09-03T02:14:03.609Z,986.7
2017-09-03T02:15:04.014Z,986.7
2017-09-03T02:16:03.420Z,986.7
2017-09-03T02:17:04.141Z,986.7
2017-09-03T02:18:03.560Z,986.7
2017-09-03T02:19:03.336Z,986.7
2017-09-03T02:20:03.761Z,986.7
2017-09-03T02:21:03.548Z,986.6
2017-09-03T02:22:03.762Z,986.7
2017-09-03T02:23:02.964Z,986.7
2017-09-03T02:24:03.932Z,986.7
2017-09-03T02:25:02.951Z,986.7
2017-09-03T02:26:03.352Z,986.6
2017-09-03T02:27:03.756Z,986.7
2017-09-03T02:28:03.346Z,986.7
2017-09-03T02:29:03.937Z,986.6
2017-09-03T02:30:03.528Z,986.7
2017-09-03T02:31:03.978Z,986.6
2017-09-03T02:32:03.778Z,986.7
2017-09-03T02:33:03.687Z,986.6
2017-09-03T02:34:04.105Z,986.7
2017-09-03T02:35:03.726Z,986.7
2017-09-03T02:36:02.950Z,986.7
2017-09-03T02:37:03.361Z,986.7
2017-09-03T02:38:04.186Z,986.6
2017-09-03T02:39:03.528Z,986.6
2017-09-03T02:40:03.970Z,986.7
2017-09-03T02:41:03.770Z,986.6
2017-09-03T02:42:03.567Z,986.6
2017-09-03T02:43:03.974Z,986.6
2017-09-03T02:44:03.379Z,986.6
2017-09-03T02:45:03.794Z,986.6
2017-09-03T02:46:03.608Z,986.6
2017-09-03T02:47:03.213Z,986.5
2017-09-03T02:48:03.835Z,986.6
2017-09-03T02:49:04.362Z,986.6
2017-09-03T02:50:03.583Z,986.5
2017-09-03T02:51:04.393Z,986.6
2017-09-03T02:52:04.188Z,986.6
2017-09-03T02:53:03.989Z,986.6
2017-09-03T02:54:03.778Z,986.5
2017-09-03T02:55:03.376Z,986.6
2017-09-03T02:56:03.591Z,986.6
2017-09-03T02:57:04.193Z,986.6
2017-09-03T02:58:03.606Z,986.5
2017-09-03T02:59:02.996Z,986.6
2017-09-03T03:00:03.234Z,986.6
2017-09-03T03:01:03.911Z,986.6
2017-09-03T03:02:03.512Z,986.6
2017-09-03T03:03:02.945Z,986.5
2017-09-03T03:04:03.545Z,986.5
2017-09-03T03:05:03.809Z,986.6
2017-09-03T03:06:03.529Z,986.5
2017-09-03T03:07:02.759Z,986.5
2017-09-03T03:08:03.579Z,986.5
2017-09-03T03:09:03.564Z,986.5
2017-09-03T03:10:03.971Z,986.5
2017-09-03T03:11:03.766Z,986.5
2017-09-03T03:12:03.365Z,986.5
2017-09-03T03:13:03.981Z,986.5
2017-09-03T03:14:03.786Z,986.5
2017-09-03T03:15:03.618Z,986.4
2017-09-03T03:16:03.433Z,986.4
2017-09-03T03:17:03.224Z,986.4
2017-09-03T03:18:03.653Z,986.4
2017-09-03T03:19:03.058Z,986.3
2017-09-03T03:20:03.323Z,986.4
2017-09-03T03:21:03.764Z,986.4
2017-09-03T03:22:03.665Z,986.4
2017-09-03T03:23:03.890Z,986.3
2017-09-03T03:24:02.745Z,986.3
2017-09-03T03:25:03.561Z,986.3
2017-09-03T03:26:02.784Z,986.2
2017-09-03T03:27:03.592Z,986.3
2017-09-03T03:28:02.993Z,986.2
2017-09-03T03:29:03.982Z,986.2
2017-09-03T03:30:03.625Z,986.3
2017-09-03T03:31:03.242Z,986.2
2017-09-03T03:32:03.859Z,986.1
2017-09-03T03:33:03.838Z,986.2
2017-09-03T03:34:03.055Z,986.2
2017-09-03T03:35:03.670Z,986.2
2017-09-03T03:36:03.070Z,986.2
2017-09-03T03:37:03.493Z,986.2
2017-09-03T03:38:03.301Z,986.2
2017-09-03T03:39:03.897Z,986.1
2017-09-03T03:40:03.696Z,986.2
2017-09-03T03:41:03.288Z,986.2
2017-09-03T03:42:04.086Z,986.1
2017-09-03T03:43:04.208Z,986.1
2017-09-03T03:44:03.416Z,986.2
2017-09-03T03:45:03.827Z,986.2
2017-09-03T03:46:03.225Z,986.2
2017-09-03T03:47:03.632Z,986.2
2017-09-03T03:48:04.046Z,986.1
2017-09-03T03:49:03.649Z,986.2
2017-09-03T03:50:03.065Z,986.3
2017-09-03T03:51:04.062Z,986.2
2017-09-03T03:52:03.649Z,986.2
2017-09-03T03:53:02.879Z,986.2
2017-09-03T03:54:03.678Z,986.2
2017-09-03T03:55:03.091Z,986.2
2017-09-03T03:56:03.497Z,986.2
2017-09-03T03:57:04.300Z,986.2
2017-09-03T03:58:03.721Z,986.2
2017-09-03T03:59:03.321Z,986.2
2017-09-03T04:00:03.947Z,986.2
2017-09-03T04:01:03.188Z,986.2
2017-09-03T04:02:02.800Z,986.2
2017-09-03T04:03:03.408Z,986.2
2017-09-03T04:04:03.016Z,986.2
2017-09-03T04:05:03.354Z,986.3
2017-09-03T04:06:03.142Z,986.3
2017-09-03T04:07:02.554Z,986.2
2017-09-03T04:08:03.183Z,986.3
2017-09-03T04:09:03.008Z,986.2
2017-09-03T04:10:02.613Z,986.2
2017-09-03T04:11:03.211Z,986.2
2017-09-03T04:12:03.219Z,986.2
2017-09-03T04:13:03.203Z,986.2
2017-09-03T04:14:02.618Z,986.2
2017-09-03T04:15:03.047Z,986.2
2017-09-03T04:16:02.879Z,986.2
2017-09-03T04:17:03.104Z,986.2
2017-09-03T04:18:02.514Z,986.1
2017-09-03T04:19:03.298Z,986.2
2017-09-03T04:20:02.936Z,986.2
2017-09-03T04:21:02.582Z,986.2
2017-09-03T04:22:03.229Z,986.1
2017-09-03T04:23:02.884Z,986.2
2017-09-03T04:24:02.866Z,986.1
2017-09-03T04:25:03.096Z,986.2
2017-09-03T04:26:03.101Z,986.2
2017-09-03T04:27:03.000Z,986.1
2017-09-03T04:28:02.841Z,986.1
2017-09-03T04:29:03.433Z,986.1
2017-09-03T04:30:03.252Z,986.1
2017-09-03T04:31:02.510Z,986.1
2017-09-03T04:32:02.936Z,986.2
2017-09-03T04:33:03.659Z,986.1
2017-09-03T04:34:02.900Z,986.1
2017-09-03T04:35:03.319Z,986.2
2017-09-03T04:36:03.131Z,986.1
2017-09-03T04:37:02.934Z,986.1
2017-09-03T04:38:03.558Z,986.1
2017-09-03T04:39:03.162Z,986.1
2017-09-03T04:40:02.005Z,986.1
2017-09-03T04:41:02.813Z,986.1
2017-09-03T04:42:03.618Z,986.1
2017-09-03T04:43:03.612Z,986.1
2017-09-03T04:44:03.520Z,986.1
2017-09-03T04:45:02.941Z,986.1
2017-09-03T04:46:03.190Z,986
2017-09-03T04:47:02.982Z,986.1
2017-09-03T04:48:02.585Z,986
2017-09-03T04:49:03.382Z,986
2017-09-03T04:50:02.791Z,986
2017-09-03T04:51:03.409Z,986
2017-09-03T04:52:02.822Z,986
2017-09-03T04:53:03.243Z,986
2017-09-03T04:54:02.658Z,986
2017-09-03T04:55:03.280Z,986
2017-09-03T04:56:02.896Z,986
2017-09-03T04:57:03.140Z,986
2017-09-03T04:58:02.937Z,986
2017-09-03T04:59:03.283Z,986.1
2017-09-03T05:00:02.898Z,986.1
2017-09-03T05:01:03.465Z,986.1
2017-09-03T05:02:03.061Z,986.1
2017-09-03T05:03:03.478Z,986.1
2017-09-03T05:04:03.091Z,986.1
2017-09-03T05:05:02.906Z,986.1
2017-09-03T05:06:03.803Z,986.1
2017-09-03T05:07:02.854Z,986.1
2017-09-03T05:08:03.457Z,986.1
2017-09-03T05:09:03.440Z,986.1
2017-09-03T05:10:03.032Z,986.1
2017-09-03T05:11:03.812Z,986.1
2017-09-03T05:12:03.851Z,986.1
2017-09-03T05:13:03.473Z,986.2
2017-09-03T05:14:02.903Z,986.2
2017-09-03T05:15:03.311Z,986.1
2017-09-03T05:16:03.728Z,986.2
2017-09-03T05:17:03.146Z,986.1
2017-09-03T05:18:02.598Z,986.2
2017-09-03T05:19:03.217Z,986.3
2017-09-03T05:20:02.673Z,986.2
2017-09-03T05:21:03.290Z,986.2
2017-09-03T05:22:03.196Z,986.2
2017-09-03T05:23:02.791Z,986.3
2017-09-03T05:24:03.433Z,986.2
2017-09-03T05:25:03.218Z,986.2
2017-09-03T05:26:02.822Z,986.2
2017-09-03T05:27:03.223Z,986.2
2017-09-03T05:28:02.453Z,986.2
2017-09-03T05:29:03.071Z,986.1
2017-09-03T05:30:03.528Z,986.2
2017-09-03T05:31:03.323Z,986.2
2017-09-03T05:32:03.122Z,986.2
2017-09-03T05:33:03.117Z,986.2
2017-09-03T05:34:03.093Z,986.2
2017-09-03T05:35:02.866Z,986.2
2017-09-03T05:36:03.479Z,986.2
2017-09-03T05:37:02.892Z,986.2
2017-09-03T05:38:03.778Z,986.2
2017-09-03T05:39:03.171Z,986.2
2017-09-03T05:40:03.181Z,986.2
2017-09-03T05:41:03.579Z,986.2
2017-09-03T05:42:02.972Z,986.2
2017-09-03T05:43:03.185Z,986.1
2017-09-03T05:44:02.803Z,986.1
2017-09-03T05:45:03.622Z,986.1
2017-09-03T05:46:03.228Z,986.1
2017-09-03T05:47:03.236Z,986.1
2017-09-03T05:48:02.691Z,986.2
2017-09-03T05:49:03.106Z,986.2
2017-09-03T05:50:03.151Z,986.2
2017-09-03T05:51:03.985Z,986.1
2017-09-03T05:52:02.449Z,986.2
2017-09-03T05:53:03.098Z,986.2
2017-09-03T05:54:03.007Z,986.2
2017-09-03T05:55:03.415Z,986.1
2017-09-03T05:56:03.218Z,986.2
2017-09-03T05:57:03.464Z,986.1
2017-09-03T05:58:02.907Z,986.2
2017-09-03T05:59:03.579Z,986.2
2017-09-03T06:00:03.426Z,986.1
2017-09-03T06:01:02.986Z,986.1
2017-09-03T06:02:02.052Z,986.1
2017-09-03T06:03:02.373Z,986.1
2017-09-03T06:04:03.023Z,986.1
2017-09-03T06:05:02.488Z,986.1
2017-09-03T06:06:03.138Z,986.1
2017-09-03T06:07:02.196Z,986.1
2017-09-03T06:08:03.068Z,986.1
2017-09-03T06:09:02.897Z,986.1
2017-09-03T06:10:02.861Z,986.1
2017-09-03T06:11:03.332Z,986.1
2017-09-03T06:12:02.804Z,986.1
2017-09-03T06:13:02.455Z,986
2017-09-03T06:14:03.350Z,986.1
2017-09-03T06:15:03.356Z,986.1
2017-09-03T06:16:03.215Z,986.1
2017-09-03T06:17:02.455Z,986.1
2017-09-03T06:18:03.270Z,986
2017-09-03T06:19:02.897Z,986.1
2017-09-03T06:20:02.353Z,986.1
2017-09-03T06:21:03.352Z,986.1
2017-09-03T06:22:02.801Z,986.1
2017-09-03T06:23:02.856Z,986.1
2017-09-03T06:24:02.512Z,986.1
2017-09-03T06:25:03.355Z,986.1
2017-09-03T06:26:02.910Z,986.2
2017-09-03T06:27:02.176Z,986.1
2017-09-03T06:28:02.616Z,986.1
2017-09-03T06:29:03.266Z,986.1
2017-09-03T06:30:02.889Z,986.1
2017-09-03T06:31:03.002Z,986.1
2017-09-03T06:32:02.812Z,986.1
2017-09-03T06:33:03.425Z,986.2
2017-09-03T06:34:03.260Z,986.1
2017-09-03T06:35:02.980Z,986.1
2017-09-03T06:36:02.467Z,986.1
2017-09-03T06:37:03.045Z,986.1
2017-09-03T06:38:02.480Z,986.1
2017-09-03T06:39:03.281Z,986.2
2017-09-03T06:40:02.906Z,986.2
2017-09-03T06:41:02.763Z,986.1
2017-09-03T06:42:02.371Z,986.1
2017-09-03T06:43:02.797Z,986.1
2017-09-03T06:44:02.233Z,986.1
2017-09-03T06:45:03.064Z,986.1
2017-09-03T06:46:02.935Z,986.1
2017-09-03T06:47:03.214Z,986.1
2017-09-03T06:48:03.016Z,986.1
2017-09-03T06:49:02.645Z,986.1
2017-09-03T06:50:03.302Z,986.1
2017-09-03T06:51:02.929Z,986.1
2017-09-03T06:52:02.342Z,986.1
2017-09-03T06:53:03.480Z,986.1
2017-09-03T06:54:03.309Z,986.1
2017-09-03T06:55:02.410Z,986.1
2017-09-03T06:56:02.864Z,986.1
2017-09-03T06:57:02.665Z,986.2
2017-09-03T06:58:03.293Z,986.2
2017-09-03T06:59:16.858Z,986.2
2017-09-03T07:00:02.980Z,986.2
2017-09-03T07:01:03.621Z,986.1
2017-09-03T07:02:03.161Z,986.1
2017-09-03T07:03:04.093Z,986.1
2017-09-03T07:04:03.903Z,986.2
2017-09-03T07:05:03.529Z,986.1
2017-09-03T07:06:03.170Z,986.1
2017-09-03T07:07:03.202Z,986.1
2017-09-03T07:08:03.658Z,986.2
2017-09-03T07:09:03.477Z,986.2
2017-09-03T07:10:02.914Z,986.2
2017-09-03T07:11:03.033Z,986.1
2017-09-03T07:12:03.653Z,986.2
2017-09-03T07:13:03.298Z,986.1
2017-09-03T07:14:04.206Z,986.1
2017-09-03T07:15:03.943Z,986.1
2017-09-03T07:16:04.339Z,986.1
2017-09-03T07:17:03.224Z,986.1
2017-09-03T07:18:03.937Z,986.1
2017-09-03T07:19:18.765Z,986
2017-09-03T07:20:04.398Z,986.1
2017-09-03T07:21:03.502Z,986.1
2017-09-03T07:22:03.804Z,986.1
2017-09-03T07:23:04.273Z,986
2017-09-03T07:24:03.745Z,986
2017-09-03T07:25:04.029Z,986
2017-09-03T07:26:03.828Z,986
2017-09-03T07:27:03.295Z,986.1
2017-09-03T07:28:03.568Z,986
2017-09-03T07:29:04.215Z,986.1
2017-09-03T07:30:03.978Z,986
2017-09-03T07:31:03.438Z,986
2017-09-03T07:32:03.712Z,986
2017-09-03T07:33:03.162Z,986
2017-09-03T07:34:03.611Z,986
2017-09-03T07:35:03.083Z,986
2017-09-03T07:36:03.171Z,985.9
2017-09-03T07:37:03.454Z,986
2017-09-03T07:38:03.897Z,986
2017-09-03T07:39:04.168Z,985.9
2017-09-03T07:40:03.603Z,985.9
2017-09-03T07:41:04.286Z,986
2017-09-03T07:42:03.940Z,986
2017-09-03T07:43:03.386Z,986
2017-09-03T07:44:03.261Z,986
2017-09-03T07:45:03.729Z,986
2017-09-03T07:46:04.016Z,986
2017-09-03T07:47:04.166Z,986
2017-09-03T07:48:03.437Z,986
2017-09-03T07:49:03.880Z,986
2017-09-03T07:50:03.182Z,986
2017-09-03T07:51:03.462Z,986
2017-09-03T07:52:04.119Z,986
2017-09-03T07:53:03.385Z,985.9
2017-09-03T07:54:03.781Z,986
2017-09-03T07:55:03.450Z,986
2017-09-03T07:56:03.908Z,986
2017-09-03T07:57:03.395Z,986
2017-09-03T07:58:03.675Z,986
2017-09-03T07:59:03.112Z,986
2017-09-03T08:00:03.411Z,985.9
2017-09-03T08:01:03.219Z,985.9
2017-09-03T08:02:03.520Z,986
2017-09-03T08:03:04.490Z,985.9
2017-09-03T08:04:03.764Z,985.9
2017-09-03T08:05:03.262Z,985.9
2017-09-03T08:06:03.710Z,985.9
2017-09-03T08:07:04.136Z,985.9
2017-09-03T08:08:03.573Z,985.9
2017-09-03T08:09:03.981Z,985.9
2017-09-03T08:10:03.619Z,985.9
2017-09-03T08:11:02.892Z,985.8
2017-09-03T08:12:03.153Z,985.8
2017-09-03T08:13:03.563Z,985.9
2017-09-03T08:14:03.918Z,985.8
2017-09-03T08:15:03.629Z,985.9
2017-09-03T08:16:02.673Z,985.8
2017-09-03T08:17:03.334Z,985.8
2017-09-03T08:18:03.945Z,985.9
2017-09-03T09:15:06.545Z,985.6
2017-09-03T09:16:02.861Z,985.6
2017-09-03T09:17:03.325Z,985.6
2017-09-03T09:18:02.988Z,985.6
2017-09-03T09:19:03.261Z,985.6
2017-09-03T09:20:03.728Z,985.6
2017-09-03T09:22:03.817Z,985.5
2017-09-03T09:23:03.577Z,985.6
2017-09-03T09:24:03.052Z,985.5
2017-09-03T09:25:02.900Z,985.5
2017-09-03T09:26:03.178Z,985.5
2017-09-03T09:27:03.246Z,985.5
2017-09-03T09:28:03.504Z,985.5
2017-09-03T09:29:02.770Z,985.4
2017-09-03T09:30:02.665Z,985.5
2017-09-03T09:31:03.367Z,985.5
2017-09-03T09:32:03.018Z,985.5
2017-09-03T09:33:03.306Z,985.5
2017-09-03T09:34:02.957Z,985.6
2017-09-03T09:35:07.557Z,985.5
2017-09-03T09:36:03.614Z,985.5
2017-09-03T09:37:03.817Z,985.4
2017-09-03T09:41:00.572Z,985.5
2017-09-03T09:41:03.941Z,985.4
2017-09-03T09:42:03.792Z,985.5
2017-09-03T09:43:04.238Z,985.5
2017-09-03T09:44:03.518Z,985.5
2017-09-03T09:45:04.201Z,985.5
2017-09-03T09:47:03.789Z,985.5
2017-09-03T09:48:03.548Z,985.5
2017-09-03T09:49:04.002Z,985.5
2017-09-03T09:50:03.869Z,985.5
2017-09-03T09:51:03.162Z,985.5
2017-09-03T09:52:03.831Z,985.4
2017-09-03T09:53:04.502Z,985.4
2017-09-03T09:54:04.029Z,985.5
2017-09-03T09:55:04.543Z,985.5
2017-09-03T09:56:03.645Z,985.4
2017-09-03T09:57:04.527Z,985.4
2017-09-03T09:58:04.244Z,985.5
2017-09-03T09:59:03.747Z,985.4
2017-09-03T10:00:03.422Z,985.4
2017-09-03T10:01:03.088Z,985.4
2017-09-03T10:02:03.594Z,985.3
2017-09-03T10:03:02.924Z,985.4
2017-09-03T10:04:03.705Z,985.4
2017-09-03T10:05:03.182Z,985.3
2017-09-03T10:06:02.464Z,985.3
2017-09-03T10:07:02.929Z,985.3
2017-09-03T10:08:03.239Z,985.3
2017-09-03T10:09:02.707Z,985.3
2017-09-03T10:09:27.018Z,985.3
2017-09-03T10:10:03.187Z,985.3
2017-09-03T10:11:02.603Z,985.3
2017-09-03T10:12:02.830Z,985.2
2017-09-03T10:13:02.848Z,985.2
2017-09-03T10:14:02.950Z,985.2
2017-09-03T10:15:03.478Z,985.3
2017-09-03T10:16:03.658Z,985.2
2017-09-03T10:17:03.096Z,985.3
2017-09-03T10:18:02.724Z,985.2
2017-09-03T10:19:03.158Z,985.3
2017-09-03T10:20:03.703Z,985.2
2017-09-03T10:21:02.951Z,985.3
2017-09-03T10:22:02.971Z,985.2
2017-09-03T10:23:03.197Z,985.3
2017-09-03T10:24:02.831Z,985.2
2017-09-03T10:25:03.080Z,985.2
2017-09-03T10:26:03.360Z,985.2
2017-09-03T10:27:02.408Z,985.3
2017-09-03T10:28:03.024Z,985.2
2017-09-03T10:29:03.241Z,985.2
2017-09-03T10:30:02.849Z,985.2
2017-09-03T10:31:03.315Z,985.1
2017-09-03T10:32:02.734Z,985.1
2017-09-03T10:33:03.135Z,985.1
2017-09-03T10:34:03.750Z,985
2017-09-03T10:35:03.364Z,985.1
2017-09-03T10:36:03.179Z,985
2017-09-03T10:37:02.894Z,985
2017-09-03T10:38:03.313Z,985
2017-09-03T10:39:03.347Z,985
2017-09-03T10:40:02.579Z,984.9
2017-09-03T10:41:02.995Z,985
2017-09-03T10:42:03.601Z,985
2017-09-03T10:43:03.017Z,984.9
2017-09-03T10:44:03.441Z,984.9
2017-09-03T10:45:03.038Z,984.9
2017-09-03T10:46:03.468Z,984.9
2017-09-03T10:47:03.073Z,985
2017-09-03T10:48:02.977Z,984.9
2017-09-03T10:49:03.643Z,985
2017-09-03T10:50:03.247Z,984.9
2017-09-03T10:52:02.381Z,985
2017-09-03T10:53:02.991Z,984.9
2017-09-03T10:54:03.396Z,985
2017-09-03T10:55:02.624Z,985
2017-09-03T10:56:02.912Z,984.9
2017-09-03T10:57:03.533Z,984.8
2017-09-03T10:58:02.945Z,984.8
2017-09-03T10:59:03.046Z,984.8
2017-09-03T11:00:03.369Z,984.8
2017-09-03T11:01:02.847Z,984.8
2017-09-03T11:02:03.338Z,984.8
2017-09-03T11:03:03.773Z,984.8
2017-09-03T11:04:03.007Z,984.8
2017-09-03T11:05:03.230Z,984.7
2017-09-03T11:06:02.662Z,984.7
2017-09-03T11:07:03.258Z,984.8
2017-09-03T11:08:02.853Z,984.7
2017-09-03T11:09:03.373Z,984.7
2017-09-03T11:10:02.984Z,984.6
2017-09-03T11:11:03.399Z,984.6
2017-09-03T11:12:02.421Z,984.6
2017-09-03T11:13:02.833Z,984.6
2017-09-03T11:14:03.234Z,984.6
2017-09-03T11:15:02.290Z,984.6
2017-09-03T11:16:02.587Z,984.6
2017-09-03T11:17:02.609Z,984.5
2017-09-03T11:18:03.450Z,984.6
2017-09-03T11:19:03.055Z,984.6
2017-09-03T11:20:02.484Z,984.6
2017-09-03T11:21:03.094Z,984.6
2017-09-03T11:22:03.209Z,984.5
2017-09-03T11:23:02.896Z,984.5
2017-09-03T11:24:03.248Z,984.5
2017-09-03T11:25:03.078Z,984.4
2017-09-03T11:26:02.713Z,984.3
2017-09-03T11:27:02.741Z,984.4
2017-09-03T11:28:03.034Z,984.4
2017-09-03T11:29:03.483Z,984.4
2017-09-03T11:30:03.295Z,984.4
2017-09-03T11:31:03.224Z,984.4
2017-09-03T11:32:03.459Z,984.3
2017-09-03T11:33:02.881Z,984.3
2017-09-03T11:34:03.104Z,984.3
2017-09-03T11:35:02.706Z,984.3
2017-09-03T11:36:02.913Z,984.3
2017-09-03T11:37:03.129Z,984.3
2017-09-03T11:38:02.951Z,984.3
2017-09-03T11:39:03.172Z,984.2
2017-09-03T11:40:02.984Z,984.3
2017-09-03T11:41:03.891Z,984.3
2017-09-03T11:42:03.105Z,984.3
2017-09-03T11:43:02.709Z,984.3
2017-09-03T11:44:03.310Z,984.3
2017-09-03T11:45:03.113Z,984.3
2017-09-03T11:46:03.340Z,984.2
2017-09-03T11:47:02.951Z,984.2
2017-09-03T11:48:03.340Z,984.1
2017-09-03T11:49:02.825Z,984.2
2017-09-03T11:50:03.242Z,984.2
2017-09-03T11:51:02.840Z,984.1
2017-09-03T11:52:03.344Z,984.1
2017-09-03T11:53:03.114Z,984.2
2017-09-03T11:54:03.699Z,984.1
2017-09-03T11:55:02.729Z,984.1
2017-09-03T11:56:03.324Z,984.1
2017-09-03T11:57:02.927Z,984.1
2017-09-03T11:58:03.147Z,984.1
2017-09-03T11:59:03.165Z,984.1
2017-09-03T12:00:03.597Z,984
2017-09-03T12:01:03.182Z,984
2017-09-03T12:02:03.597Z,984
2017-09-03T12:03:03.245Z,983.9
2017-09-03T12:04:03.858Z,983.9
2017-09-03T12:05:02.892Z,984
2017-09-03T12:06:03.332Z,984
2017-09-03T12:07:03.570Z,984
2017-09-03T12:08:03.918Z,983.9
2017-09-03T12:09:03.508Z,983.9
2017-09-03T12:10:03.117Z,983.9
2017-09-03T12:11:03.402Z,983.9
2017-09-03T12:12:03.484Z,983.9
2017-09-03T12:13:02.729Z,983.9
2017-09-03T12:14:03.357Z,983.9
2017-09-03T12:15:02.401Z,983.9
2017-09-03T12:16:03.007Z,983.8
2017-09-03T12:17:03.271Z,983.8
2017-09-03T12:18:02.910Z,983.9
2017-09-03T12:19:03.471Z,983.8
2017-09-03T12:20:03.080Z,983.8
2017-09-03T12:21:03.486Z,983.8
2017-09-03T12:22:02.706Z,983.8
2017-09-03T12:23:03.106Z,983.7
2017-09-03T12:24:03.909Z,983.8
2017-09-03T12:25:03.310Z,983.8
2017-09-03T12:26:02.541Z,983.8
2017-09-03T12:27:03.177Z,983.8
2017-09-03T12:28:03.783Z,983.8
2017-09-03T12:29:02.645Z,983.8
2017-09-03T12:30:03.449Z,983.8
2017-09-03T12:31:03.245Z,983.8
2017-09-03T12:32:02.641Z,983.8
2017-09-03T12:33:03.394Z,983.7
2017-09-03T12:34:03.413Z,983.7
2017-09-03T12:35:03.098Z,983.8
2017-09-03T12:36:03.102Z,983.7
2017-09-03T12:37:03.156Z,983.7
2017-09-03T12:38:03.376Z,983.7
2017-09-03T12:39:03.379Z,983.7
2017-09-03T12:40:03.771Z,983.7
2017-09-03T12:41:03.511Z,983.7
2017-09-03T12:42:03.256Z,983.6
2017-09-03T12:43:03.439Z,983.7
2017-09-03T12:44:03.078Z,983.6
2017-09-03T12:45:02.926Z,983.6
2017-09-03T12:46:03.484Z,983.6
2017-09-03T12:47:03.036Z,983.7
2017-09-03T12:48:03.041Z,983.6
2017-09-03T12:49:03.244Z,983.6
2017-09-03T12:50:03.430Z,983.6
2017-09-03T12:51:03.066Z,983.6
2017-09-03T12:52:03.107Z,983.6
2017-09-03T12:53:03.531Z,983.6
2017-09-03T12:54:03.136Z,983.6
2017-09-03T12:55:03.920Z,983.6
2017-09-03T12:56:03.315Z,983.6
2017-09-03T12:57:03.206Z,983.6
2017-09-03T12:58:03.439Z,983.6
2017-09-03T12:59:02.634Z,983.5
2017-09-03T13:00:02.911Z,983.5
2017-09-03T13:01:03.366Z,983.5
2017-09-03T13:02:04.162Z,983.5
2017-09-03T13:03:03.548Z,983.4
2017-09-03T13:04:03.750Z,983.4
2017-09-03T13:05:03.301Z,983.4
2017-09-03T13:06:03.679Z,983.4
2017-09-03T13:07:03.969Z,983.4
2017-09-03T13:08:03.312Z,983.4
2017-09-03T13:09:03.356Z,983.4
2017-09-03T13:10:03.536Z,983.4
2017-09-03T13:11:03.742Z,983.3
2017-09-03T13:12:03.133Z,983.3
2017-09-03T13:13:03.527Z,983.3
2017-09-03T13:14:02.711Z,983.3
2017-09-03T13:15:03.315Z,983.3
2017-09-03T13:16:02.872Z,983.2
2017-09-03T13:17:03.467Z,983.2
2017-09-03T13:18:03.784Z,983.2
2017-09-03T13:19:03.569Z,983.2
2017-09-03T13:20:03.143Z,983.2
2017-09-03T13:21:03.339Z,983.2
2017-09-03T13:22:03.885Z,983.2
2017-09-03T13:23:03.445Z,983.2
2017-09-03T13:24:03.621Z,983.1
2017-09-03T13:25:03.803Z,983.2
2017-09-03T13:26:03.167Z,983.2
2017-09-03T13:27:03.726Z,983.1
2017-09-03T13:28:03.297Z,983.1
2017-09-03T13:29:03.038Z,983.1
2017-09-03T13:30:03.227Z,983.1
2017-09-03T13:31:03.567Z,983.1
2017-09-03T13:32:03.124Z,983.1
2017-09-03T13:33:03.860Z,983.1
2017-09-03T13:34:03.603Z,983.1
2017-09-03T13:35:04.461Z,983.1
2017-09-03T13:36:04.010Z,983
2017-09-03T13:37:03.020Z,983
2017-09-03T13:38:03.797Z,983
2017-09-03T13:39:03.374Z,983
2017-09-03T13:40:04.011Z,983
2017-09-03T13:41:03.176Z,983
2017-09-03T13:42:03.380Z,983
2017-09-03T13:43:03.788Z,983
2017-09-03T13:44:02.977Z,982.9
2017-09-03T13:45:03.153Z,982.9
2017-09-03T13:46:04.061Z,982.9
2017-09-03T13:47:03.454Z,982.9
2017-09-03T13:48:03.658Z,982.9
2017-09-03T13:49:04.229Z,982.9
2017-09-03T13:50:03.421Z,982.8
2017-09-03T13:51:03.599Z,982.8
2017-09-03T13:52:03.513Z,982.8
2017-09-03T13:53:04.291Z,982.8
2017-09-03T13:54:03.398Z,982.8
2017-09-03T13:55:03.678Z,982.8
2017-09-03T13:56:03.216Z,982.8
2017-09-03T13:57:03.713Z,982.7
2017-09-03T13:58:02.989Z,982.8